sensor_id;sensor_type;location;lat;lon;timestamp;P1;durP1;ratioP1;P2;durP2;ratioP2
23745;SDS011;12053;48.878;9.632;2024-01-30T00:01:17;17.38;;;11.63;;
23745;SDS011;12053;48.878;9.632;2024-01-30T00:03:44;17.17;;;10.70;;
23745;SDS011;12053;48.878;9.632;2024-01-30T00:06:11;18.42;;;11.38;;
23745;SDS011;12053;48.878;9.632;2024-01-30T00:08:39;20.73;;;12.45;;
23745;SDS011;12053;48.878;9.632;2024-01-30T00:11:07;18.20;;;10.80;;
23745;SDS011;12053;48.878;9.632;2024-01-30T00:13:34;15.90;;;11.00;;
23745;SDS011;12053;48.878;9.632;2024-01-30T00:16:01;18.90;;;11.10;;
23745;SDS011;12053;48.878;9.632;2024-01-30T00:18:30;15.88;;;9.73;;
23745;SDS011;12053;48.878;9.632;2024-01-30T00:20:57;15.18;;;9.52;;
23745;SDS011;12053;48.878;9.632;2024-01-30T00:23:24;14.18;;;9.75;;
23745;SDS011;12053;48.878;9.632;2024-01-30T00:25:52;11.73;;;8.35;;
23745;SDS011;12053;48.878;9.632;2024-01-30T00:28:19;12.05;;;7.82;;
23745;SDS011;12053;48.878;9.632;2024-01-30T00:30:46;13.27;;;8.27;;
23745;SDS011;12053;48.878;9.632;2024-01-30T00:33:14;10.90;;;6.97;;
23745;SDS011;12053;48.878;9.632;2024-01-30T00:35:42;13.77;;;8.65;;
23745;SDS011;12053;48.878;9.632;2024-01-30T00:38:09;13.38;;;7.68;;
23745;SDS011;12053;48.878;9.632;2024-01-30T00:40:36;11.00;;;7.57;;
23745;SDS011;12053;48.878;9.632;2024-01-30T00:43:04;11.25;;;7.30;;
23745;SDS011;12053;48.878;9.632;2024-01-30T00:45:32;8.63;;;6.40;;
23745;SDS011;12053;48.878;9.632;2024-01-30T00:47:59;12.18;;;6.90;;
23745;SDS011;12053;48.878;9.632;2024-01-30T00:50:26;10.50;;;6.90;;
23745;SDS011;12053;48.878;9.632;2024-01-30T00:52:54;10.20;;;7.40;;
23745;SDS011;12053;48.878;9.632;2024-01-30T00:55:21;11.05;;;7.05;;
23745;SDS011;12053;48.878;9.632;2024-01-30T00:57:48;10.60;;;7.00;;
23745;SDS011;12053;48.878;9.632;2024-01-30T01:00:16;8.75;;;7.15;;
23745;SDS011;12053;48.878;9.632;2024-01-30T01:02:43;10.43;;;6.95;;
23745;SDS011;12053;48.878;9.632;2024-01-30T01:05:11;9.88;;;7.15;;
23745;SDS011;12053;48.878;9.632;2024-01-30T01:07:38;11.63;;;6.93;;
23745;SDS011;12053;48.878;9.632;2024-01-30T01:10:06;9.90;;;7.22;;
23745;SDS011;12053;48.878;9.632;2024-01-30T01:12:34;13.13;;;8.45;;
23745;SDS011;12053;48.878;9.632;2024-01-30T01:15:02;14.13;;;8.80;;
23745;SDS011;12053;48.878;9.632;2024-01-30T01:17:29;14.23;;;8.20;;
23745;SDS011;12053;48.878;9.632;2024-01-30T01:19:56;16.52;;;9.25;;
23745;SDS011;12053;48.878;9.632;2024-01-30T01:22:24;12.13;;;8.40;;
23745;SDS011;12053;48.878;9.632;2024-01-30T01:24:51;11.93;;;8.57;;
23745;SDS011;12053;48.878;9.632;2024-01-30T01:27:18;11.40;;;7.65;;
23745;SDS011;12053;48.878;9.632;2024-01-30T01:29:46;11.77;;;7.78;;
23745;SDS011;12053;48.878;9.632;2024-01-30T01:32:13;12.57;;;7.78;;
23745;SDS011;12053;48.878;9.632;2024-01-30T01:34:41;12.38;;;7.53;;
23745;SDS011;12053;48.878;9.632;2024-01-30T01:37:08;12.10;;;7.88;;
23745;SDS011;12053;48.878;9.632;2024-01-30T01:39:35;13.38;;;8.80;;
23745;SDS011;12053;48.878;9.632;2024-01-30T01:42:03;14.13;;;8.38;;
23745;SDS011;12053;48.878;9.632;2024-01-30T01:44:30;10.57;;;7.63;;
23745;SDS011;12053;48.878;9.632;2024-01-30T01:46:58;11.57;;;7.32;;
23745;SDS011;12053;48.878;9.632;2024-01-30T01:49:25;10.40;;;7.28;;
23745;SDS011;12053;48.878;9.632;2024-01-30T01:51:54;7.95;;;6.22;;
23745;SDS011;12053;48.878;9.632;2024-01-30T01:54:25;8.18;;;5.47;;
23745;SDS011;12053;48.878;9.632;2024-01-30T01:56:53;10.68;;;6.22;;
23745;SDS011;12053;48.878;9.632;2024-01-30T01:59:21;9.18;;;5.65;;
23745;SDS011;12053;48.878;9.632;2024-01-30T02:01:49;7.70;;;5.35;;
23745;SDS011;12053;48.878;9.632;2024-01-30T02:04:16;10.55;;;5.70;;
23745;SDS011;12053;48.878;9.632;2024-01-30T02:06:44;7.35;;;5.32;;
23745;SDS011;12053;48.878;9.632;2024-01-30T02:09:11;8.57;;;6.03;;
23745;SDS011;12053;48.878;9.632;2024-01-30T02:11:38;12.60;;;6.10;;
23745;SDS011;12053;48.878;9.632;2024-01-30T02:14:07;8.43;;;5.78;;
23745;SDS011;12053;48.878;9.632;2024-01-30T02:16:34;7.75;;;5.75;;
23745;SDS011;12053;48.878;9.632;2024-01-30T02:19:02;8.30;;;5.43;;
23745;SDS011;12053;48.878;9.632;2024-01-30T02:21:30;7.32;;;4.30;;
23745;SDS011;12053;48.878;9.632;2024-01-30T02:23:57;7.95;;;5.00;;
23745;SDS011;12053;48.878;9.632;2024-01-30T02:26:25;7.28;;;5.10;;
23745;SDS011;12053;48.878;9.632;2024-01-30T02:28:52;7.05;;;4.68;;
23745;SDS011;12053;48.878;9.632;2024-01-30T02:31:20;5.53;;;4.25;;
23745;SDS011;12053;48.878;9.632;2024-01-30T02:33:47;6.65;;;4.53;;
23745;SDS011;12053;48.878;9.632;2024-01-30T02:36:14;6.75;;;4.53;;
23745;SDS011;12053;48.878;9.632;2024-01-30T02:38:42;7.18;;;4.97;;
23745;SDS011;12053;48.878;9.632;2024-01-30T02:41:09;7.30;;;4.95;;
23745;SDS011;12053;48.878;9.632;2024-01-30T02:43:36;7.65;;;4.50;;
23745;SDS011;12053;48.878;9.632;2024-01-30T02:46:03;7.10;;;5.28;;
23745;SDS011;12053;48.878;9.632;2024-01-30T02:48:32;7.53;;;5.57;;
23745;SDS011;12053;48.878;9.632;2024-01-30T02:50:59;8.15;;;5.38;;
23745;SDS011;12053;48.878;9.632;2024-01-30T02:53:26;8.32;;;4.80;;
23745;SDS011;12053;48.878;9.632;2024-01-30T02:55:53;7.68;;;5.22;;
23745;SDS011;12053;48.878;9.632;2024-01-30T02:58:21;8.55;;;5.38;;
23745;SDS011;12053;48.878;9.632;2024-01-30T03:00:48;7.85;;;4.80;;
23745;SDS011;12053;48.878;9.632;2024-01-30T03:03:15;8.15;;;5.10;;
23745;SDS011;12053;48.878;9.632;2024-01-30T03:05:43;6.82;;;5.20;;
23745;SDS011;12053;48.878;9.632;2024-01-30T03:08:10;7.90;;;5.22;;
23745;SDS011;12053;48.878;9.632;2024-01-30T03:10:37;7.72;;;5.13;;
23745;SDS011;12053;48.878;9.632;2024-01-30T03:13:05;6.78;;;5.10;;
23745;SDS011;12053;48.878;9.632;2024-01-30T03:15:32;6.05;;;4.75;;
23745;SDS011;12053;48.878;9.632;2024-01-30T03:17:59;7.03;;;4.72;;
23745;SDS011;12053;48.878;9.632;2024-01-30T03:20:27;7.50;;;5.00;;
23745;SDS011;12053;48.878;9.632;2024-01-30T03:22:55;7.53;;;5.50;;
23745;SDS011;12053;48.878;9.632;2024-01-30T03:25:22;7.65;;;5.32;;
23745;SDS011;12053;48.878;9.632;2024-01-30T03:27:49;7.80;;;4.95;;
23745;SDS011;12053;48.878;9.632;2024-01-30T03:30:18;7.60;;;5.68;;
23745;SDS011;12053;48.878;9.632;2024-01-30T03:32:45;7.68;;;5.30;;
23745;SDS011;12053;48.878;9.632;2024-01-30T03:35:12;8.02;;;5.38;;
23745;SDS011;12053;48.878;9.632;2024-01-30T03:37:39;8.07;;;5.57;;
23745;SDS011;12053;48.878;9.632;2024-01-30T03:40:07;8.80;;;5.50;;
23745;SDS011;12053;48.878;9.632;2024-01-30T03:42:34;7.40;;;5.38;;
23745;SDS011;12053;48.878;9.632;2024-01-30T03:45:02;8.50;;;4.88;;
23745;SDS011;12053;48.878;9.632;2024-01-30T03:47:29;7.20;;;4.68;;
23745;SDS011;12053;48.878;9.632;2024-01-30T03:49:56;7.53;;;5.15;;
23745;SDS011;12053;48.878;9.632;2024-01-30T03:52:24;8.52;;;6.13;;
23745;SDS011;12053;48.878;9.632;2024-01-30T03:54:51;8.90;;;5.93;;
23745;SDS011;12053;48.878;9.632;2024-01-30T03:57:18;7.63;;;5.20;;
23745;SDS011;12053;48.878;9.632;2024-01-30T03:59:45;8.18;;;5.13;;
23745;SDS011;12053;48.878;9.632;2024-01-30T04:02:13;6.30;;;4.82;;
23745;SDS011;12053;48.878;9.632;2024-01-30T04:04:40;8.38;;;4.82;;
23745;SDS011;12053;48.878;9.632;2024-01-30T04:07:08;6.82;;;5.00;;
23745;SDS011;12053;48.878;9.632;2024-01-30T04:09:35;10.68;;;5.88;;
23745;SDS011;12053;48.878;9.632;2024-01-30T04:12:02;40.28;;;12.57;;
23745;SDS011;12053;48.878;9.632;2024-01-30T04:14:30;12.07;;;5.93;;
23745;SDS011;12053;48.878;9.632;2024-01-30T04:16:57;12.05;;;6.30;;
23745;SDS011;12053;48.878;9.632;2024-01-30T04:19:24;15.65;;;7.63;;
23745;SDS011;12053;48.878;9.632;2024-01-30T04:21:52;10.75;;;5.93;;
23745;SDS011;12053;48.878;9.632;2024-01-30T04:24:19;9.48;;;5.30;;
23745;SDS011;12053;48.878;9.632;2024-01-30T04:26:46;8.70;;;5.40;;
23745;SDS011;12053;48.878;9.632;2024-01-30T04:29:13;8.90;;;5.25;;
23745;SDS011;12053;48.878;9.632;2024-01-30T04:31:41;9.25;;;5.50;;
23745;SDS011;12053;48.878;9.632;2024-01-30T04:34:08;9.50;;;5.40;;
23745;SDS011;12053;48.878;9.632;2024-01-30T04:36:35;7.47;;;5.43;;
23745;SDS011;12053;48.878;9.632;2024-01-30T04:39:02;9.30;;;5.40;;
23745;SDS011;12053;48.878;9.632;2024-01-30T04:41:30;9.05;;;4.88;;
23745;SDS011;12053;48.878;9.632;2024-01-30T04:43:58;5.45;;;4.57;;
23745;SDS011;12053;48.878;9.632;2024-01-30T04:46:25;6.72;;;5.00;;
23745;SDS011;12053;48.878;9.632;2024-01-30T04:48:53;6.75;;;4.78;;
23745;SDS011;12053;48.878;9.632;2024-01-30T04:51:20;8.20;;;4.85;;
23745;SDS011;12053;48.878;9.632;2024-01-30T04:53:48;7.50;;;4.88;;
23745;SDS011;12053;48.878;9.632;2024-01-30T04:56:15;9.55;;;4.90;;
23745;SDS011;12053;48.878;9.632;2024-01-30T04:58:42;6.03;;;4.18;;
23745;SDS011;12053;48.878;9.632;2024-01-30T05:01:09;6.85;;;4.80;;
23745;SDS011;12053;48.878;9.632;2024-01-30T05:03:41;7.10;;;4.80;;
23745;SDS011;12053;48.878;9.632;2024-01-30T05:06:09;6.32;;;4.38;;
23745;SDS011;12053;48.878;9.632;2024-01-30T05:08:36;6.30;;;4.32;;
23745;SDS011;12053;48.878;9.632;2024-01-30T05:11:04;6.13;;;4.82;;
23745;SDS011;12053;48.878;9.632;2024-01-30T05:13:32;6.38;;;4.75;;
23745;SDS011;12053;48.878;9.632;2024-01-30T05:16:01;8.52;;;5.00;;
23745;SDS011;12053;48.878;9.632;2024-01-30T05:18:29;5.93;;;4.72;;
23745;SDS011;12053;48.878;9.632;2024-01-30T05:20:57;7.00;;;4.47;;
23745;SDS011;12053;48.878;9.632;2024-01-30T05:23:24;9.18;;;4.72;;
23745;SDS011;12053;48.878;9.632;2024-01-30T05:25:52;6.25;;;4.80;;
23745;SDS011;12053;48.878;9.632;2024-01-30T05:28:19;5.45;;;4.18;;
23745;SDS011;12053;48.878;9.632;2024-01-30T05:30:46;7.57;;;4.72;;
23745;SDS011;12053;48.878;9.632;2024-01-30T05:33:14;6.60;;;3.97;;
23745;SDS011;12053;48.878;9.632;2024-01-30T05:35:41;6.30;;;4.72;;
23745;SDS011;12053;48.878;9.632;2024-01-30T05:38:08;5.80;;;4.55;;
23745;SDS011;12053;48.878;9.632;2024-01-30T05:40:35;7.90;;;4.70;;
23745;SDS011;12053;48.878;9.632;2024-01-30T05:43:02;9.18;;;5.25;;
23745;SDS011;12053;48.878;9.632;2024-01-30T05:45:30;7.32;;;5.55;;
23745;SDS011;12053;48.878;9.632;2024-01-30T05:47:57;27.48;;;17.30;;
23745;SDS011;12053;48.878;9.632;2024-01-30T05:50:24;24.88;;;14.55;;
23745;SDS011;12053;48.878;9.632;2024-01-30T05:52:53;15.90;;;9.45;;
23745;SDS011;12053;48.878;9.632;2024-01-30T05:55:21;11.30;;;7.60;;
23745;SDS011;12053;48.878;9.632;2024-01-30T05:57:49;10.27;;;7.85;;
23745;SDS011;12053;48.878;9.632;2024-01-30T06:00:18;14.38;;;8.65;;
23745;SDS011;12053;48.878;9.632;2024-01-30T06:02:45;9.50;;;6.50;;
23745;SDS011;12053;48.878;9.632;2024-01-30T06:05:13;8.85;;;6.13;;
23745;SDS011;12053;48.878;9.632;2024-01-30T06:07:40;9.23;;;5.80;;
23745;SDS011;12053;48.878;9.632;2024-01-30T06:10:07;8.65;;;5.85;;
23745;SDS011;12053;48.878;9.632;2024-01-30T06:12:35;9.88;;;6.43;;
23745;SDS011;12053;48.878;9.632;2024-01-30T06:15:02;9.75;;;5.88;;
23745;SDS011;12053;48.878;9.632;2024-01-30T06:17:30;8.30;;;6.22;;
23745;SDS011;12053;48.878;9.632;2024-01-30T06:19:57;9.40;;;6.60;;
23745;SDS011;12053;48.878;9.632;2024-01-30T06:22:24;10.02;;;6.80;;
23745;SDS011;12053;48.878;9.632;2024-01-30T06:24:52;10.98;;;6.63;;
23745;SDS011;12053;48.878;9.632;2024-01-30T06:27:19;9.98;;;7.03;;
23745;SDS011;12053;48.878;9.632;2024-01-30T06:29:46;10.88;;;6.93;;
23745;SDS011;12053;48.878;9.632;2024-01-30T06:32:13;12.00;;;7.75;;
23745;SDS011;12053;48.878;9.632;2024-01-30T06:34:41;12.30;;;7.70;;
23745;SDS011;12053;48.878;9.632;2024-01-30T06:37:10;11.80;;;7.63;;
23745;SDS011;12053;48.878;9.632;2024-01-30T06:39:38;9.85;;;6.25;;
23745;SDS011;12053;48.878;9.632;2024-01-30T06:42:05;11.27;;;6.85;;
23745;SDS011;12053;48.878;9.632;2024-01-30T06:44:32;10.52;;;6.40;;
23745;SDS011;12053;48.878;9.632;2024-01-30T06:46:59;10.35;;;6.80;;
23745;SDS011;12053;48.878;9.632;2024-01-30T06:49:26;9.88;;;7.00;;
23745;SDS011;12053;48.878;9.632;2024-01-30T06:51:54;14.43;;;7.72;;
23745;SDS011;12053;48.878;9.632;2024-01-30T06:54:21;19.67;;;12.82;;
23745;SDS011;12053;48.878;9.632;2024-01-30T06:56:48;36.10;;;20.42;;
23745;SDS011;12053;48.878;9.632;2024-01-30T06:59:16;17.15;;;10.23;;
23745;SDS011;12053;48.878;9.632;2024-01-30T07:01:43;23.40;;;13.85;;
23745;SDS011;12053;48.878;9.632;2024-01-30T07:04:11;30.75;;;18.60;;
23745;SDS011;12053;48.878;9.632;2024-01-30T07:06:38;25.13;;;15.77;;
23745;SDS011;12053;48.878;9.632;2024-01-30T07:09:05;23.88;;;15.63;;
23745;SDS011;12053;48.878;9.632;2024-01-30T07:11:33;19.38;;;13.77;;
23745;SDS011;12053;48.878;9.632;2024-01-30T07:14:00;17.88;;;10.70;;
23745;SDS011;12053;48.878;9.632;2024-01-30T07:16:30;15.82;;;11.23;;
23745;SDS011;12053;48.878;9.632;2024-01-30T07:18:57;16.77;;;11.15;;
23745;SDS011;12053;48.878;9.632;2024-01-30T07:21:24;20.58;;;13.27;;
23745;SDS011;12053;48.878;9.632;2024-01-30T07:23:54;14.93;;;9.75;;
23745;SDS011;12053;48.878;9.632;2024-01-30T07:26:22;10.95;;;7.65;;
23745;SDS011;12053;48.878;9.632;2024-01-30T07:28:49;11.48;;;6.85;;
23745;SDS011;12053;48.878;9.632;2024-01-30T07:31:17;11.57;;;7.43;;
23745;SDS011;12053;48.878;9.632;2024-01-30T07:33:47;11.27;;;8.00;;
23745;SDS011;12053;48.878;9.632;2024-01-30T07:36:14;13.15;;;9.45;;
23745;SDS011;12053;48.878;9.632;2024-01-30T07:38:41;14.65;;;9.93;;
23745;SDS011;12053;48.878;9.632;2024-01-30T07:41:09;16.10;;;11.25;;
23745;SDS011;12053;48.878;9.632;2024-01-30T07:43:37;15.27;;;10.15;;
23745;SDS011;12053;48.878;9.632;2024-01-30T07:46:05;16.88;;;8.70;;
23745;SDS011;12053;48.878;9.632;2024-01-30T07:48:33;19.85;;;7.93;;
23745;SDS011;12053;48.878;9.632;2024-01-30T07:51:00;11.02;;;6.53;;
23745;SDS011;12053;48.878;9.632;2024-01-30T07:53:29;7.32;;;5.35;;
23745;SDS011;12053;48.878;9.632;2024-01-30T07:55:56;7.53;;;6.03;;
23745;SDS011;12053;48.878;9.632;2024-01-30T07:58:23;9.70;;;6.18;;
23745;SDS011;12053;48.878;9.632;2024-01-30T08:00:53;11.93;;;6.45;;
23745;SDS011;12053;48.878;9.632;2024-01-30T08:03:23;9.98;;;6.00;;
23745;SDS011;12053;48.878;9.632;2024-01-30T08:05:50;12.85;;;6.95;;
23745;SDS011;12053;48.878;9.632;2024-01-30T08:08:17;9.40;;;5.85;;
23745;SDS011;12053;48.878;9.632;2024-01-30T08:10:44;8.95;;;6.38;;
23745;SDS011;12053;48.878;9.632;2024-01-30T08:13:12;8.85;;;7.20;;
23745;SDS011;12053;48.878;9.632;2024-01-30T08:15:39;25.23;;;13.52;;
23745;SDS011;12053;48.878;9.632;2024-01-30T08:18:06;14.95;;;9.23;;
23745;SDS011;12053;48.878;9.632;2024-01-30T08:20:33;32.20;;;17.23;;
23745;SDS011;12053;48.878;9.632;2024-01-30T08:23:01;28.45;;;14.93;;
23745;SDS011;12053;48.878;9.632;2024-01-30T08:25:28;34.58;;;17.30;;
23745;SDS011;12053;48.878;9.632;2024-01-30T08:27:56;29.02;;;14.55;;
23745;SDS011;12053;48.878;9.632;2024-01-30T08:30:24;26.80;;;14.02;;
23745;SDS011;12053;48.878;9.632;2024-01-30T08:32:51;11.90;;;7.68;;
23745;SDS011;12053;48.878;9.632;2024-01-30T08:35:19;14.45;;;9.55;;
23745;SDS011;12053;48.878;9.632;2024-01-30T08:37:46;10.93;;;8.02;;
23745;SDS011;12053;48.878;9.632;2024-01-30T08:40:13;10.73;;;8.13;;
23745;SDS011;12053;48.878;9.632;2024-01-30T08:42:40;11.65;;;7.32;;
23745;SDS011;12053;48.878;9.632;2024-01-30T08:45:08;13.38;;;7.40;;
23745;SDS011;12053;48.878;9.632;2024-01-30T08:47:35;11.77;;;7.95;;
23745;SDS011;12053;48.878;9.632;2024-01-30T08:50:03;11.88;;;7.95;;
23745;SDS011;12053;48.878;9.632;2024-01-30T08:52:30;16.40;;;9.43;;
23745;SDS011;12053;48.878;9.632;2024-01-30T08:54:59;10.77;;;7.95;;
23745;SDS011;12053;48.878;9.632;2024-01-30T08:57:27;11.50;;;6.95;;
23745;SDS011;12053;48.878;9.632;2024-01-30T08:59:55;10.30;;;7.07;;
23745;SDS011;12053;48.878;9.632;2024-01-30T09:02:22;12.45;;;7.55;;
23745;SDS011;12053;48.878;9.632;2024-01-30T09:04:49;10.38;;;7.60;;
23745;SDS011;12053;48.878;9.632;2024-01-30T09:07:17;17.48;;;9.23;;
23745;SDS011;12053;48.878;9.632;2024-01-30T09:09:44;15.32;;;8.98;;
23745;SDS011;12053;48.878;9.632;2024-01-30T09:12:11;16.60;;;9.50;;
23745;SDS011;12053;48.878;9.632;2024-01-30T09:14:39;17.90;;;9.80;;
23745;SDS011;12053;48.878;9.632;2024-01-30T09:17:08;15.80;;;10.23;;
23745;SDS011;12053;48.878;9.632;2024-01-30T09:19:35;19.20;;;9.50;;
23745;SDS011;12053;48.878;9.632;2024-01-30T09:22:03;15.98;;;9.80;;
23745;SDS011;12053;48.878;9.632;2024-01-30T09:24:30;14.38;;;7.93;;
23745;SDS011;12053;48.878;9.632;2024-01-30T09:26:58;14.05;;;6.50;;
23745;SDS011;12053;48.878;9.632;2024-01-30T09:29:25;11.93;;;6.05;;
23745;SDS011;12053;48.878;9.632;2024-01-30T09:31:52;6.85;;;4.72;;
23745;SDS011;12053;48.878;9.632;2024-01-30T09:34:20;4.65;;;3.35;;
23745;SDS011;12053;48.878;9.632;2024-01-30T09:36:48;10.02;;;4.03;;
23745;SDS011;12053;48.878;9.632;2024-01-30T09:39:15;6.32;;;3.25;;
23745;SDS011;12053;48.878;9.632;2024-01-30T09:41:45;5.63;;;3.03;;
23745;SDS011;12053;48.878;9.632;2024-01-30T09:44:12;10.32;;;4.05;;
23745;SDS011;12053;48.878;9.632;2024-01-30T09:46:40;6.38;;;2.80;;
23745;SDS011;12053;48.878;9.632;2024-01-30T09:49:09;15.20;;;6.38;;
23745;SDS011;12053;48.878;9.632;2024-01-30T09:51:36;10.45;;;3.88;;
23745;SDS011;12053;48.878;9.632;2024-01-30T09:54:03;14.80;;;8.55;;
23745;SDS011;12053;48.878;9.632;2024-01-30T09:56:31;7.60;;;4.45;;
23745;SDS011;12053;48.878;9.632;2024-01-30T09:58:58;9.18;;;4.57;;
23745;SDS011;12053;48.878;9.632;2024-01-30T10:01:25;5.97;;;3.22;;
23745;SDS011;12053;48.878;9.632;2024-01-30T10:03:53;5.45;;;2.42;;
23745;SDS011;12053;48.878;9.632;2024-01-30T10:06:21;7.50;;;4.03;;
23745;SDS011;12053;48.878;9.632;2024-01-30T10:08:50;5.85;;;3.95;;
23745;SDS011;12053;48.878;9.632;2024-01-30T10:11:18;6.78;;;4.25;;
23745;SDS011;12053;48.878;9.632;2024-01-30T10:13:45;6.03;;;3.60;;
23745;SDS011;12053;48.878;9.632;2024-01-30T10:16:15;8.73;;;4.45;;
23745;SDS011;12053;48.878;9.632;2024-01-30T10:18:43;4.07;;;2.50;;
23745;SDS011;12053;48.878;9.632;2024-01-30T10:21:10;4.43;;;2.80;;
23745;SDS011;12053;48.878;9.632;2024-01-30T10:23:37;6.88;;;2.80;;
23745;SDS011;12053;48.878;9.632;2024-01-30T10:26:06;9.20;;;3.53;;
23745;SDS011;12053;48.878;9.632;2024-01-30T10:28:34;2.63;;;2.22;;
23745;SDS011;12053;48.878;9.632;2024-01-30T10:31:02;4.22;;;2.13;;
23745;SDS011;12053;48.878;9.632;2024-01-30T10:33:32;4.60;;;2.50;;
23745;SDS011;12053;48.878;9.632;2024-01-30T10:36:01;3.13;;;2.42;;
23745;SDS011;12053;48.878;9.632;2024-01-30T10:38:29;2.72;;;2.30;;
23745;SDS011;12053;48.878;9.632;2024-01-30T10:40:57;4.05;;;2.25;;
23745;SDS011;12053;48.878;9.632;2024-01-30T10:44:01;2.92;;;1.80;;
23745;SDS011;12053;48.878;9.632;2024-01-30T10:46:19;3.70;;;2.15;;
23745;SDS011;12053;48.878;9.632;2024-01-30T10:48:55;4.10;;;2.40;;
23745;SDS011;12053;48.878;9.632;2024-01-30T10:51:28;2.88;;;2.38;;
23745;SDS011;12053;48.878;9.632;2024-01-30T10:53:56;2.42;;;2.03;;
23745;SDS011;12053;48.878;9.632;2024-01-30T10:56:24;6.22;;;2.55;;
23745;SDS011;12053;48.878;9.632;2024-01-30T10:58:52;7.28;;;2.70;;
23745;SDS011;12053;48.878;9.632;2024-01-30T11:01:20;3.85;;;2.20;;
23745;SDS011;12053;48.878;9.632;2024-01-30T11:03:50;4.53;;;2.85;;
23745;SDS011;12053;48.878;9.632;2024-01-30T11:06:18;4.28;;;2.00;;
23745;SDS011;12053;48.878;9.632;2024-01-30T11:08:45;2.63;;;2.17;;
23745;SDS011;12053;48.878;9.632;2024-01-30T11:11:13;5.55;;;2.30;;
23745;SDS011;12053;48.878;9.632;2024-01-30T11:13:43;4.47;;;2.38;;
23745;SDS011;12053;48.878;9.632;2024-01-30T11:16:11;4.35;;;2.90;;
23745;SDS011;12053;48.878;9.632;2024-01-30T11:18:38;4.82;;;2.30;;
23745;SDS011;12053;48.878;9.632;2024-01-30T11:21:05;5.72;;;2.60;;
23745;SDS011;12053;48.878;9.632;2024-01-30T11:23:33;7.00;;;2.90;;
23745;SDS011;12053;48.878;9.632;2024-01-30T11:26:01;4.00;;;2.90;;
23745;SDS011;12053;48.878;9.632;2024-01-30T11:28:32;4.43;;;2.63;;
23745;SDS011;12053;48.878;9.632;2024-01-30T11:31:06;5.00;;;2.95;;
23745;SDS011;12053;48.878;9.632;2024-01-30T11:33:34;2.88;;;2.38;;
23745;SDS011;12053;48.878;9.632;2024-01-30T11:36:01;3.33;;;2.65;;
23745;SDS011;12053;48.878;9.632;2024-01-30T11:38:29;4.15;;;2.20;;
23745;SDS011;12053;48.878;9.632;2024-01-30T11:40:57;2.72;;;2.15;;
23745;SDS011;12053;48.878;9.632;2024-01-30T11:43:24;2.72;;;2.42;;
23745;SDS011;12053;48.878;9.632;2024-01-30T11:45:51;3.72;;;2.20;;
23745;SDS011;12053;48.878;9.632;2024-01-30T11:48:19;2.75;;;2.28;;
23745;SDS011;12053;48.878;9.632;2024-01-30T11:50:46;7.50;;;3.78;;
23745;SDS011;12053;48.878;9.632;2024-01-30T11:53:14;3.85;;;2.70;;
23745;SDS011;12053;48.878;9.632;2024-01-30T11:55:41;5.32;;;2.55;;
23745;SDS011;12053;48.878;9.632;2024-01-30T11:58:09;5.05;;;2.55;;
23745;SDS011;12053;48.878;9.632;2024-01-30T12:00:36;3.38;;;2.70;;
23745;SDS011;12053;48.878;9.632;2024-01-30T12:03:04;3.20;;;2.40;;
23745;SDS011;12053;48.878;9.632;2024-01-30T12:05:33;6.20;;;2.70;;
23745;SDS011;12053;48.878;9.632;2024-01-30T12:08:00;6.78;;;2.80;;
23745;SDS011;12053;48.878;9.632;2024-01-30T12:10:28;4.68;;;2.33;;
23745;SDS011;12053;48.878;9.632;2024-01-30T12:12:56;4.05;;;2.38;;
23745;SDS011;12053;48.878;9.632;2024-01-30T12:15:24;5.32;;;2.42;;
23745;SDS011;12053;48.878;9.632;2024-01-30T12:17:52;6.10;;;2.55;;
23745;SDS011;12053;48.878;9.632;2024-01-30T12:20:19;4.88;;;2.60;;
23745;SDS011;12053;48.878;9.632;2024-01-30T12:22:49;5.72;;;3.10;;
23745;SDS011;12053;48.878;9.632;2024-01-30T12:25:17;7.22;;;4.78;;
23745;SDS011;12053;48.878;9.632;2024-01-30T12:27:52;3.40;;;2.53;;
23745;SDS011;12053;48.878;9.632;2024-01-30T12:30:20;4.10;;;2.58;;
23745;SDS011;12053;48.878;9.632;2024-01-30T12:32:50;3.65;;;2.90;;
23745;SDS011;12053;48.878;9.632;2024-01-30T12:35:18;8.25;;;2.75;;
23745;SDS011;12053;48.878;9.632;2024-01-30T12:37:47;3.55;;;2.63;;
23745;SDS011;12053;48.878;9.632;2024-01-30T12:40:14;3.90;;;2.60;;
23745;SDS011;12053;48.878;9.632;2024-01-30T12:42:42;3.58;;;2.42;;
23745;SDS011;12053;48.878;9.632;2024-01-30T12:45:13;4.30;;;2.95;;
23745;SDS011;12053;48.878;9.632;2024-01-30T12:47:41;3.28;;;2.55;;
23745;SDS011;12053;48.878;9.632;2024-01-30T12:50:09;5.93;;;2.97;;
23745;SDS011;12053;48.878;9.632;2024-01-30T12:52:36;4.00;;;2.38;;
23745;SDS011;12053;48.878;9.632;2024-01-30T12:55:03;3.75;;;3.00;;
23745;SDS011;12053;48.878;9.632;2024-01-30T12:57:31;6.28;;;2.83;;
23745;SDS011;12053;48.878;9.632;2024-01-30T12:59:58;4.43;;;2.78;;
23745;SDS011;12053;48.878;9.632;2024-01-30T13:02:25;3.92;;;2.70;;
23745;SDS011;12053;48.878;9.632;2024-01-30T13:05:01;3.95;;;2.30;;
23745;SDS011;12053;48.878;9.632;2024-01-30T13:07:28;4.65;;;2.78;;
23745;SDS011;12053;48.878;9.632;2024-01-30T13:09:56;3.50;;;2.50;;
23745;SDS011;12053;48.878;9.632;2024-01-30T13:12:30;3.40;;;2.33;;
23745;SDS011;12053;48.878;9.632;2024-01-30T13:15:01;5.00;;;2.50;;
23745;SDS011;12053;48.878;9.632;2024-01-30T13:17:30;3.90;;;2.35;;
23745;SDS011;12053;48.878;9.632;2024-01-30T13:19:57;4.30;;;2.67;;
23745;SDS011;12053;48.878;9.632;2024-01-30T13:22:35;6.97;;;4.75;;
23745;SDS011;12053;48.878;9.632;2024-01-30T13:25:05;6.55;;;3.22;;
23745;SDS011;12053;48.878;9.632;2024-01-30T13:27:33;4.88;;;2.58;;
23745;SDS011;12053;48.878;9.632;2024-01-30T13:30:00;4.78;;;2.38;;
23745;SDS011;12053;48.878;9.632;2024-01-30T13:32:28;4.43;;;2.67;;
23745;SDS011;12053;48.878;9.632;2024-01-30T13:34:55;4.50;;;2.40;;
23745;SDS011;12053;48.878;9.632;2024-01-30T13:37:22;3.22;;;2.22;;
23745;SDS011;12053;48.878;9.632;2024-01-30T13:39:50;3.50;;;2.60;;
23745;SDS011;12053;48.878;9.632;2024-01-30T13:42:17;4.72;;;2.80;;
23745;SDS011;12053;48.878;9.632;2024-01-30T13:44:45;6.38;;;2.90;;
23745;SDS011;12053;48.878;9.632;2024-01-30T13:47:12;7.53;;;3.45;;
23745;SDS011;12053;48.878;9.632;2024-01-30T13:49:40;8.13;;;4.43;;
23745;SDS011;12053;48.878;9.632;2024-01-30T13:52:07;5.07;;;3.13;;
23745;SDS011;12053;48.878;9.632;2024-01-30T13:54:34;5.43;;;3.67;;
23745;SDS011;12053;48.878;9.632;2024-01-30T13:57:02;7.93;;;2.80;;
23745;SDS011;12053;48.878;9.632;2024-01-30T13:59:29;3.75;;;2.50;;
23745;SDS011;12053;48.878;9.632;2024-01-30T14:01:56;4.47;;;2.40;;
23745;SDS011;12053;48.878;9.632;2024-01-30T14:04:24;3.47;;;2.30;;
23745;SDS011;12053;48.878;9.632;2024-01-30T14:06:51;7.43;;;3.15;;
23745;SDS011;12053;48.878;9.632;2024-01-30T14:09:30;5.47;;;2.58;;
23745;SDS011;12053;48.878;9.632;2024-01-30T14:11:58;2.97;;;2.47;;
23745;SDS011;12053;48.878;9.632;2024-01-30T14:14:26;6.13;;;3.03;;
23745;SDS011;12053;48.878;9.632;2024-01-30T14:16:53;3.67;;;2.88;;
23745;SDS011;12053;48.878;9.632;2024-01-30T14:19:20;10.65;;;3.28;;
23745;SDS011;12053;48.878;9.632;2024-01-30T14:21:48;4.93;;;3.10;;
23745;SDS011;12053;48.878;9.632;2024-01-30T14:24:15;7.35;;;2.88;;
23745;SDS011;12053;48.878;9.632;2024-01-30T14:26:42;5.00;;;2.60;;
23745;SDS011;12053;48.878;9.632;2024-01-30T14:29:10;5.25;;;2.83;;
23745;SDS011;12053;48.878;9.632;2024-01-30T14:31:37;5.13;;;3.08;;
23745;SDS011;12053;48.878;9.632;2024-01-30T14:34:05;11.05;;;4.10;;
23745;SDS011;12053;48.878;9.632;2024-01-30T14:36:32;5.10;;;3.42;;
23745;SDS011;12053;48.878;9.632;2024-01-30T14:38:59;7.43;;;4.10;;
23745;SDS011;12053;48.878;9.632;2024-01-30T14:41:26;6.72;;;3.80;;
23745;SDS011;12053;48.878;9.632;2024-01-30T14:43:54;7.78;;;4.03;;